createdAt,value
2023-02-05T00:00:21.646Z,12.23
2023-02-05T00:02:48.411Z,11.60
2023-02-05T00:05:15.406Z,11.67
2023-02-05T00:10:08.206Z,11.97
2023-02-05T00:12:34.949Z,12.13
2023-02-05T00:15:01.710Z,12.20
2023-02-05T00:17:28.829Z,11.30
2023-02-05T00:19:55.776Z,12.37
2023-02-05T00:22:22.856Z,12.33
2023-02-05T00:24:50.280Z,12.13
2023-02-05T00:27:17.552Z,11.00
2023-02-05T00:29:44.239Z,12.30
2023-02-05T00:32:11.564Z,12.30
2023-02-05T00:34:38.236Z,11.27
2023-02-05T00:37:04.891Z,11.63
2023-02-05T00:39:31.556Z,11.17
2023-02-05T00:42:01.793Z,13.10
2023-02-05T00:44:28.591Z,11.87
2023-02-05T00:46:55.450Z,12.90
2023-02-05T00:49:22.124Z,12.80
2023-02-05T00:51:48.781Z,11.53
2023-02-05T00:54:15.571Z,12.77
2023-02-05T00:56:46.467Z,11.73
2023-02-05T00:59:13.202Z,11.37
2023-02-05T01:01:40.083Z,11.80
2023-02-05T01:04:06.860Z,10.90
2023-02-05T01:06:33.560Z,11.63
2023-02-05T01:09:00.235Z,12.63
2023-02-05T01:11:26.906Z,11.30
2023-02-05T01:13:53.581Z,12.23
2023-02-05T01:16:20.255Z,12.23
2023-02-05T01:18:46.919Z,12.40
2023-02-05T01:21:13.643Z,11.97
2023-02-05T01:23:40.577Z,12.07
2023-02-05T01:26:07.293Z,12.47
2023-02-05T01:28:34.016Z,11.23
2023-02-05T01:31:00.820Z,11.97
2023-02-05T01:33:27.545Z,11.07
2023-02-05T01:35:54.230Z,11.67
2023-02-05T01:38:21.074Z,12.03
2023-02-05T01:40:47.885Z,12.03
2023-02-05T01:43:18.207Z,11.07
2023-02-05T01:45:57.982Z,10.47
2023-02-05T01:48:29.671Z,13.17
2023-02-05T01:51:02.219Z,12.03
2023-02-05T01:53:33.769Z,11.77
2023-02-05T01:56:04.488Z,11.47
2023-02-05T01:58:36.093Z,11.83
2023-02-05T02:01:02.860Z,11.77
2023-02-05T02:03:31.583Z,11.17
2023-02-05T02:05:58.649Z,11.17
2023-02-05T02:08:25.960Z,12.40
2023-02-05T02:10:57.073Z,11.97
2023-02-05T02:13:27.274Z,10.73
2023-02-05T02:15:55.362Z,11.10
2023-02-05T02:18:28.820Z,8.70
2023-02-05T02:21:16.644Z,9.00
2023-02-05T02:24:01.315Z,8.37
2023-02-05T02:26:42.366Z,8.43
2023-02-05T02:29:18.417Z,8.33
2023-02-05T02:31:58.752Z,8.43
2023-02-05T02:37:12.797Z,9.27
2023-02-05T02:39:43.362Z,9.67
2023-02-05T02:42:25.155Z,8.17
2023-02-05T02:45:00.249Z,10.27
2023-02-05T02:47:33.620Z,8.73
2023-02-05T02:50:07.112Z,9.47
2023-02-05T02:52:37.778Z,10.17
2023-02-05T02:55:09.663Z,10.20
2023-02-05T02:57:40.095Z,10.30
2023-02-05T03:00:13.607Z,9.93
2023-02-05T03:02:44.371Z,11.07
2023-02-05T03:05:18.554Z,8.77
2023-02-05T03:07:50.641Z,8.63
2023-02-05T03:10:26.548Z,9.57
2023-02-05T03:12:55.505Z,10.23
2023-02-05T03:15:23.045Z,8.80
2023-02-05T03:17:52.382Z,9.17
2023-02-05T03:20:37.289Z,9.57
2023-02-05T03:23:03.980Z,11.57
2023-02-05T03:25:30.905Z,11.03
2023-02-05T03:27:58.842Z,9.87
2023-02-05T03:30:33.239Z,9.50
2023-02-05T03:33:19.173Z,9.53
2023-02-05T03:36:15.217Z,10.17
2023-02-05T03:38:43.901Z,9.93
2023-02-05T03:44:15.673Z,10.23
2023-02-05T03:46:49.347Z,9.50
2023-02-05T03:49:43.751Z,8.47
2023-02-05T03:52:22.696Z,8.80
2023-02-05T03:54:58.374Z,8.83
2023-02-05T03:57:43.937Z,9.97
2023-02-05T04:00:11.958Z,9.57
2023-02-05T04:02:38.764Z,11.00
2023-02-05T04:05:09.225Z,11.03
2023-02-05T04:07:36.086Z,11.10
2023-02-05T04:10:02.875Z,11.37
2023-02-05T04:12:33.205Z,10.67
2023-02-05T04:15:00.140Z,10.90
2023-02-05T04:17:27.038Z,12.33
2023-02-05T04:19:53.803Z,11.97
2023-02-05T04:22:20.502Z,12.67
2023-02-05T04:24:47.183Z,12.57
2023-02-05T04:27:15.842Z,13.07
2023-02-05T04:29:43.381Z,13.33
2023-02-05T04:32:10.038Z,11.90
2023-02-05T04:34:36.717Z,13.03
2023-02-05T04:37:03.609Z,14.40
2023-02-05T04:39:30.392Z,14.17
2023-02-05T04:41:57.152Z,13.50
2023-02-05T04:44:24.091Z,13.20
2023-02-05T04:46:58.670Z,14.33
2023-02-05T04:49:25.872Z,13.73
2023-02-05T04:51:52.734Z,15.27
2023-02-05T04:54:19.509Z,13.03
2023-02-05T04:56:49.612Z,13.80
2023-02-05T04:59:16.430Z,13.90
2023-02-05T05:01:43.140Z,13.53
2023-02-05T05:04:10.068Z,13.53
2023-02-05T05:06:36.742Z,12.67
2023-02-05T05:09:03.505Z,13.30
2023-02-05T05:11:30.312Z,14.07
2023-02-05T05:13:58.059Z,12.80
2023-02-05T05:16:25.000Z,13.00
2023-02-05T05:18:53.251Z,12.90
2023-02-05T05:21:20.027Z,12.53
2023-02-05T05:23:46.731Z,12.47
2023-02-05T05:26:13.807Z,11.43
2023-02-05T05:28:40.559Z,11.90
2023-02-05T05:31:21.863Z,11.73
2023-02-05T05:33:48.955Z,12.77
2023-02-05T05:36:16.352Z,11.50
2023-02-05T05:38:43.098Z,11.40
2023-02-05T05:41:38.446Z,11.10
2023-02-05T05:44:05.489Z,9.50
2023-02-05T05:46:35.570Z,10.10
2023-02-05T05:49:03.774Z,9.70
2023-02-05T05:51:32.797Z,9.97
2023-02-05T05:53:59.637Z,10.00
2023-02-05T05:56:26.384Z,9.93
2023-02-05T05:58:53.232Z,10.27
2023-02-05T06:01:22.349Z,10.07
2023-02-05T06:03:49.867Z,8.63
2023-02-05T06:06:16.717Z,8.93
2023-02-05T06:08:43.466Z,9.60
2023-02-05T06:11:10.652Z,8.80
2023-02-05T06:13:38.492Z,9.47
2023-02-05T06:16:09.260Z,8.97
2023-02-05T06:18:36.411Z,9.63
2023-02-05T06:21:13.712Z,9.03
2023-02-05T06:23:40.368Z,9.27
2023-02-05T06:26:07.148Z,9.07
2023-02-05T06:28:33.891Z,9.53
2023-02-05T06:31:00.940Z,8.97
2023-02-05T06:33:27.649Z,9.43
2023-02-05T06:35:54.836Z,9.57
2023-02-05T06:38:21.580Z,8.60
2023-02-05T06:40:49.084Z,8.27
2023-02-05T06:43:15.948Z,8.70
2023-02-05T06:45:43.450Z,8.50
2023-02-05T06:48:10.225Z,8.90
2023-02-05T06:50:36.956Z,9.73
2023-02-05T06:53:07.202Z,8.80
2023-02-05T06:55:34.352Z,8.77
2023-02-05T06:58:01.298Z,8.30
2023-02-05T07:00:28.111Z,8.30
2023-02-05T07:02:55.462Z,9.30
2023-02-05T07:05:22.286Z,7.10
2023-02-05T07:07:49.935Z,9.07
2023-02-05T07:10:16.946Z,8.90
2023-02-05T07:12:43.933Z,8.73
2023-02-05T07:15:13.623Z,9.37
2023-02-05T07:17:40.442Z,8.63
2023-02-05T07:20:07.870Z,8.83
2023-02-05T07:22:34.667Z,9.00
2023-02-05T07:25:04.929Z,9.30
2023-02-05T07:27:31.700Z,8.27
2023-02-05T07:29:58.649Z,9.03
2023-02-05T07:32:25.749Z,7.90
2023-02-05T07:34:52.522Z,7.15
2023-02-05T07:37:21.333Z,8.63
2023-02-05T07:39:48.734Z,8.63
2023-02-05T07:42:15.541Z,8.77
2023-02-05T07:47:07.841Z,9.30
2023-02-05T07:49:34.486Z,8.57
2023-02-05T07:52:01.256Z,9.27
2023-02-05T07:54:27.908Z,8.63
2023-02-05T07:56:55.840Z,8.10
2023-02-05T07:59:22.601Z,8.32
2023-02-05T08:01:49.296Z,8.67
2023-02-05T08:04:16.101Z,7.97
2023-02-05T08:06:43.928Z,8.32
2023-02-05T08:09:11.188Z,8.68
2023-02-05T08:11:40.682Z,8.50
2023-02-05T08:14:07.363Z,8.17
2023-02-05T08:16:34.317Z,7.47
2023-02-05T08:19:01.128Z,7.80
2023-02-05T08:21:30.723Z,7.67
2023-02-05T08:23:58.718Z,7.72
2023-02-05T08:26:25.472Z,8.55
2023-02-05T08:28:52.218Z,8.82
2023-02-05T08:31:19.507Z,8.48
2023-02-05T08:33:47.909Z,8.02
2023-02-05T08:36:15.006Z,8.63
2023-02-05T08:41:12.820Z,8.30
2023-02-05T08:43:43.750Z,8.48
2023-02-05T08:46:13.781Z,8.18
2023-02-05T08:48:41.214Z,8.23
2023-02-05T08:51:10.736Z,8.10
2023-02-05T08:53:37.447Z,8.55
2023-02-05T08:56:06.269Z,8.15
2023-02-05T08:58:34.247Z,8.70
2023-02-05T09:01:02.921Z,8.70
2023-02-05T09:03:31.164Z,8.65
2023-02-05T09:05:59.254Z,7.80
2023-02-05T09:08:27.432Z,8.77
2023-02-05T09:10:54.581Z,7.05
2023-02-05T09:13:21.351Z,7.60
2023-02-05T09:15:48.839Z,8.45
2023-02-05T09:18:17.118Z,7.88
2023-02-05T09:20:46.374Z,6.88
2023-02-05T09:23:15.153Z,7.78
2023-02-05T09:25:46.156Z,7.38
2023-02-05T09:28:14.871Z,7.28
2023-02-05T09:30:46.798Z,7.60
2023-02-05T09:33:13.875Z,7.53
2023-02-05T09:35:40.736Z,7.95
2023-02-05T09:38:07.402Z,7.63
2023-02-05T09:40:43.598Z,8.48
2023-02-05T09:43:29.519Z,8.85
2023-02-05T09:46:09.627Z,8.57
2023-02-05T09:48:42.964Z,8.35
2023-02-05T09:51:12.691Z,8.63
2023-02-05T09:53:42.647Z,9.40
2023-02-05T09:56:12.355Z,9.10
2023-02-05T09:58:46.215Z,8.27
2023-02-05T10:01:19.368Z,9.73
2023-02-05T10:03:53.491Z,10.10
2023-02-05T10:06:23.155Z,8.75
2023-02-05T10:08:49.938Z,8.55
2023-02-05T10:11:32.571Z,8.85
2023-02-05T10:14:18.816Z,9.25
2023-02-05T10:17:07.474Z,8.52
2023-02-05T10:19:43.525Z,9.25
2023-02-05T10:22:22.563Z,8.60
2023-02-05T10:25:14.626Z,8.35
2023-02-05T10:27:43.872Z,8.25
2023-02-05T10:30:26.138Z,10.02
2023-02-05T10:33:03.937Z,9.23
2023-02-05T10:35:45.082Z,8.98
2023-02-05T10:38:23.057Z,8.57
2023-02-05T10:40:53.399Z,8.93
2023-02-05T10:43:43.556Z,9.55
2023-02-05T10:46:14.900Z,8.98
2023-02-05T10:48:43.762Z,8.93
2023-02-05T10:51:33.797Z,9.10
2023-02-05T10:54:01.176Z,9.70
2023-02-05T10:56:28.268Z,9.18
2023-02-05T10:58:58.367Z,9.32
2023-02-05T11:01:33.695Z,9.93
2023-02-05T11:04:07.661Z,10.35
2023-02-05T11:09:24.016Z,10.32
2023-02-05T11:11:55.740Z,10.20
2023-02-05T11:14:35.566Z,9.82
2023-02-05T11:17:20.834Z,10.55
2023-02-05T11:19:56.638Z,9.85
2023-02-05T11:22:39.620Z,10.65
2023-02-05T11:25:22.797Z,9.38
2023-02-05T11:27:53.632Z,9.93
2023-02-05T11:33:23.181Z,10.70
2023-02-05T11:36:08.204Z,10.00
2023-02-05T11:38:43.753Z,9.82
2023-02-05T11:41:13.291Z,10.55
2023-02-05T11:43:51.295Z,9.88
2023-02-05T11:46:24.518Z,10.68
2023-02-05T11:49:02.193Z,9.20
2023-02-05T11:54:15.755Z,10.80
2023-02-05T11:59:22.285Z,9.82
2023-02-05T12:01:49.132Z,11.40
2023-02-05T12:04:19.531Z,11.93
2023-02-05T12:07:06.881Z,10.48
2023-02-05T12:09:33.560Z,10.27
2023-02-05T12:12:21.684Z,10.38
2023-02-05T12:15:02.139Z,10.40
2023-02-05T12:17:40.159Z,10.35
2023-02-05T12:20:12.219Z,10.02
2023-02-05T12:22:43.757Z,10.48
2023-02-05T12:25:13.432Z,10.77
2023-02-05T12:27:44.368Z,10.60
2023-02-05T12:30:31.743Z,11.40
2023-02-05T12:33:10.197Z,11.45
2023-02-05T12:35:43.633Z,11.27
2023-02-05T12:38:16.755Z,12.45
2023-02-05T12:40:48.275Z,12.52
2023-02-05T12:43:24.036Z,12.23
2023-02-05T12:46:17.808Z,12.38
2023-02-05T12:48:47.387Z,11.70
2023-02-05T12:51:43.696Z,12.00
2023-02-05T12:54:35.925Z,12.38
2023-02-05T12:57:08.420Z,11.65
2023-02-05T12:59:43.769Z,12.13
2023-02-05T13:02:37.909Z,12.45
2023-02-05T13:05:23.143Z,13.15
2023-02-05T13:08:08.377Z,12.30
2023-02-05T13:10:42.792Z,13.43
2023-02-05T13:13:17.910Z,12.48
2023-02-05T13:15:49.549Z,14.38
2023-02-05T13:18:26.276Z,13.05
2023-02-05T13:21:19.726Z,13.65
2023-02-05T13:24:06.952Z,13.80
2023-02-05T13:26:43.714Z,13.70
2023-02-05T13:29:14.141Z,14.35
2023-02-05T13:31:43.643Z,14.25
2023-02-05T13:34:15.413Z,13.90
2023-02-05T13:36:42.897Z,13.60
2023-02-05T13:39:43.710Z,13.90
2023-02-05T13:42:39.486Z,15.23
2023-02-05T13:48:20.166Z,13.70
2023-02-05T13:50:47.525Z,13.77
2023-02-05T13:53:43.708Z,16.73
2023-02-05T13:56:39.819Z,14.85
2023-02-05T13:59:20.540Z,15.15
2023-02-05T14:01:57.993Z,15.00
2023-02-05T14:04:46.418Z,15.27
2023-02-05T14:07:24.726Z,15.10
2023-02-05T14:09:57.151Z,15.32
2023-02-05T14:12:43.887Z,14.98
2023-02-05T14:15:16.982Z,15.60
2023-02-05T14:17:52.590Z,17.52
2023-02-05T14:20:25.260Z,17.27
2023-02-05T14:23:01.209Z,16.55
2023-02-05T14:25:44.948Z,17.90
2023-02-05T14:28:17.633Z,17.88
2023-02-05T14:30:59.606Z,18.38
2023-02-05T14:33:37.801Z,17.02
2023-02-05T14:36:25.978Z,19.30
2023-02-05T14:39:27.344Z,18.63
2023-02-05T14:41:58.969Z,18.25
2023-02-05T14:44:31.514Z,18.58
2023-02-05T14:47:04.989Z,19.23
2023-02-05T14:49:34.542Z,17.90
2023-02-05T14:52:23.529Z,18.25
2023-02-05T14:55:05.452Z,17.48
2023-02-05T14:57:42.741Z,22.35
2023-02-05T15:00:21.685Z,24.02
2023-02-05T15:02:51.570Z,25.45
2023-02-05T15:05:40.872Z,22.67
2023-02-05T15:08:21.177Z,19.67
2023-02-05T15:10:50.359Z,16.85
2023-02-05T15:13:19.707Z,16.90
2023-02-05T15:16:11.682Z,16.15
2023-02-05T15:18:44.142Z,15.93
2023-02-05T15:21:39.902Z,16.73
2023-02-05T15:24:15.357Z,16.40
2023-02-05T15:26:42.761Z,16.35
2023-02-05T15:29:13.952Z,16.80
2023-02-05T15:31:44.747Z,16.20
2023-02-05T15:34:33.020Z,16.60
2023-02-05T15:37:10.834Z,15.77
2023-02-05T15:39:43.965Z,16.17
2023-02-05T15:42:18.528Z,16.80
2023-02-05T15:44:45.458Z,16.02
2023-02-05T15:47:24.528Z,16.42
2023-02-05T15:49:58.399Z,14.40
2023-02-05T15:52:28.081Z,14.68
2023-02-05T15:54:57.242Z,15.98
2023-02-05T15:57:29.830Z,16.15
2023-02-05T15:59:59.907Z,14.20
2023-02-05T16:02:31.088Z,14.35
2023-02-05T16:05:07.653Z,14.80
2023-02-05T16:10:16.539Z,13.93
2023-02-05T16:13:07.457Z,13.65
2023-02-05T16:15:44.233Z,14.32
2023-02-05T16:18:43.718Z,14.20
2023-02-05T16:21:25.854Z,14.05
2023-02-05T16:23:58.061Z,14.27
2023-02-05T16:29:47.676Z,13.20
2023-02-05T16:32:28.372Z,14.43
2023-02-05T16:34:55.518Z,14.82
2023-02-05T16:37:27.496Z,14.88
2023-02-05T16:39:55.971Z,14.93
2023-02-05T16:42:39.628Z,15.25
2023-02-05T16:45:09.337Z,15.70
2023-02-05T16:47:36.993Z,14.35
2023-02-05T16:50:39.965Z,14.80
2023-02-05T16:53:37.891Z,13.95
2023-02-05T16:56:36.129Z,15.47
2023-02-05T16:59:05.559Z,15.27
2023-02-05T17:01:44.200Z,15.38
2023-02-05T17:04:31.710Z,15.43
2023-02-05T17:07:01.141Z,14.98
2023-02-05T17:09:39.801Z,14.65
2023-02-05T17:12:27.209Z,15.82
2023-02-05T17:15:16.076Z,15.57
2023-02-05T17:17:44.997Z,14.60
2023-02-05T17:20:17.845Z,15.40
2023-02-05T17:23:05.816Z,15.73
2023-02-05T17:25:36.992Z,15.73
2023-02-05T17:28:08.281Z,16.00
2023-02-05T17:30:35.351Z,16.08
2023-02-05T17:33:07.075Z,16.60
2023-02-05T17:35:34.130Z,16.38
2023-02-05T17:38:01.171Z,16.55
2023-02-05T17:40:28.303Z,14.03
2023-02-05T17:42:56.220Z,15.77
2023-02-05T17:45:30.968Z,16.42
2023-02-05T17:47:57.654Z,16.52
2023-02-05T17:50:24.865Z,16.88
2023-02-05T17:52:52.802Z,16.60
2023-02-05T17:55:23.448Z,17.40
2023-02-05T17:57:50.261Z,17.05
2023-02-05T18:00:21.534Z,14.93
2023-02-05T18:02:48.407Z,16.20
2023-02-05T18:05:19.237Z,15.98
2023-02-05T18:07:54.472Z,16.90
2023-02-05T18:10:28.294Z,16.70
2023-02-05T18:12:57.231Z,16.77
2023-02-05T18:15:25.357Z,17.13
2023-02-05T18:17:52.962Z,16.92
2023-02-05T18:20:23.403Z,15.88
2023-02-05T18:22:50.509Z,15.95
2023-02-05T18:25:18.946Z,16.42
2023-02-05T18:27:48.224Z,17.23
2023-02-05T18:30:24.377Z,16.08
2023-02-05T18:32:51.933Z,17.13
2023-02-05T18:35:18.840Z,16.55
2023-02-05T18:37:45.494Z,17.60
2023-02-05T18:40:14.820Z,16.50
2023-02-05T18:45:09.078Z,16.38
2023-02-05T18:47:36.242Z,16.65
2023-02-05T18:50:02.997Z,17.65
2023-02-05T18:52:30.650Z,16.77
2023-02-05T18:54:57.825Z,17.88
2023-02-05T18:57:24.579Z,18.00
2023-02-05T18:59:51.388Z,16.95
2023-02-05T19:02:18.113Z,18.30
2023-02-05T19:04:46.095Z,18.23
2023-02-05T19:07:12.878Z,17.73
2023-02-05T19:09:39.702Z,17.08
2023-02-05T19:12:06.675Z,18.05
2023-02-05T19:14:34.178Z,17.33
2023-02-05T19:17:01.351Z,16.35
2023-02-05T19:19:30.046Z,16.42
2023-02-05T19:22:09.306Z,17.13
2023-02-05T19:24:37.557Z,15.77
2023-02-05T19:27:04.676Z,16.83
2023-02-05T19:29:39.783Z,17.40
2023-02-05T19:32:08.011Z,16.73
2023-02-05T19:34:38.959Z,16.48
2023-02-05T19:37:11.855Z,17.73
2023-02-05T19:39:39.266Z,17.98
2023-02-05T19:42:09.287Z,16.75
2023-02-05T19:44:39.431Z,16.35
2023-02-05T19:47:06.560Z,18.67
2023-02-05T19:49:38.881Z,15.93
2023-02-05T19:52:10.062Z,16.65
2023-02-05T19:54:37.010Z,16.65
2023-02-05T19:57:04.080Z,17.02
2023-02-05T19:59:30.823Z,16.08
2023-02-05T20:01:58.076Z,17.95
2023-02-05T20:04:29.063Z,17.55
2023-02-05T20:07:00.593Z,15.75
2023-02-05T20:09:28.352Z,15.68
2023-02-05T20:11:56.037Z,15.35
2023-02-05T20:14:24.010Z,16.27
2023-02-05T20:16:52.380Z,15.98
2023-02-05T20:19:27.691Z,17.48
2023-02-05T20:21:56.982Z,17.20
2023-02-05T20:24:24.392Z,17.30
2023-02-05T20:26:53.145Z,18.25
2023-02-05T20:32:11.810Z,18.38
2023-02-05T20:37:09.828Z,17.95
2023-02-05T20:39:39.808Z,18.70
2023-02-05T20:42:15.817Z,19.30
2023-02-05T20:44:44.045Z,18.10
2023-02-05T20:47:14.022Z,18.73
2023-02-05T20:52:09.947Z,19.25
2023-02-05T20:54:37.031Z,20.33
2023-02-05T20:57:04.699Z,20.30
2023-02-05T20:59:34.668Z,19.70
2023-02-05T21:02:02.716Z,16.75
2023-02-05T21:04:30.249Z,19.35
2023-02-05T21:06:58.597Z,18.00
2023-02-05T21:09:25.805Z,18.25
2023-02-05T21:11:55.757Z,17.15
2023-02-05T21:14:23.396Z,17.17
2023-02-05T21:16:50.367Z,17.65
2023-02-05T21:19:18.692Z,15.65
2023-02-05T21:21:46.175Z,16.38
2023-02-05T21:24:14.892Z,16.95
2023-02-05T21:26:43.956Z,15.60
2023-02-05T21:29:16.926Z,16.33
2023-02-05T21:31:49.564Z,16.70
2023-02-05T21:34:19.695Z,16.38
2023-02-05T21:36:48.378Z,16.42
2023-02-05T21:39:20.299Z,16.65
2023-02-05T21:41:47.960Z,16.20
2023-02-05T21:44:21.885Z,16.85
2023-02-05T21:46:48.637Z,17.17
2023-02-05T21:49:15.648Z,17.30
2023-02-05T21:54:09.074Z,17.45
2023-02-05T21:56:38.485Z,18.10
2023-02-05T21:59:05.476Z,15.88
2023-02-05T22:01:34.585Z,16.10
2023-02-05T22:04:08.444Z,17.33
2023-02-05T22:06:36.269Z,16.65
2023-02-05T22:09:11.923Z,15.98
2023-02-05T22:11:39.583Z,16.58
2023-02-05T22:14:06.862Z,17.35
2023-02-05T22:16:35.848Z,16.23
2023-02-05T22:19:04.296Z,16.35
2023-02-05T22:21:35.058Z,15.65
2023-02-05T22:24:03.220Z,14.48
2023-02-05T22:26:36.886Z,15.55
2023-02-05T22:29:06.329Z,16.58
2023-02-05T22:31:33.574Z,16.83
2023-02-05T22:34:00.571Z,16.55
2023-02-05T22:36:30.590Z,15.82
2023-02-05T22:38:58.135Z,15.45
2023-02-05T22:41:27.627Z,15.63
2023-02-05T22:43:56.236Z,14.70
2023-02-05T22:46:25.783Z,14.87
2023-02-05T22:48:54.158Z,15.30
2023-02-05T22:51:25.451Z,15.13
2023-02-05T22:53:53.467Z,14.52
2023-02-05T22:56:20.219Z,13.48
2023-02-05T22:58:48.101Z,15.25
2023-02-05T23:01:16.789Z,14.20
2023-02-05T23:03:44.085Z,14.93
2023-02-05T23:06:12.510Z,14.23
2023-02-05T23:08:39.887Z,15.07
2023-02-05T23:11:09.112Z,14.80
2023-02-05T23:16:46.378Z,14.23
2023-02-05T23:19:19.757Z,13.43
2023-02-05T23:21:47.950Z,14.95
2023-02-05T23:24:15.504Z,12.45
2023-02-05T23:26:45.071Z,13.15
2023-02-05T23:29:14.278Z,12.52
2023-02-05T23:31:41.351Z,14.32
2023-02-05T23:34:08.350Z,13.15
2023-02-05T23:36:35.436Z,14.80
2023-02-05T23:39:02.191Z,13.48
2023-02-05T23:41:37.909Z,13.63
2023-02-05T23:44:08.044Z,14.95
2023-02-05T23:46:35.643Z,14.20
2023-02-05T23:49:02.820Z,13.70
2023-02-05T23:51:29.577Z,14.63
2023-02-05T23:53:56.430Z,14.85
2023-02-05T23:56:23.395Z,16.80
2023-02-05T23:58:50.177Z,15.00
